Saline City, Indiana
Current Conditions -  °F | °C
As of 8:53 PM on Tuesday 21 Oct 2014 (Local Time) from KHUF Reporting Station
Broken Clouds Broken Clouds  
Wind Chill: 52°   Ceiling: 5000
Heat Index: 52°   Visibility: 10mi
Dew Point: 43°   Wind: 10mph
Humidity: 71%   Direction: 10°N
Pressure: 30.18"   Gusts: NA
Location:  39.3787°N, 87.0992°W
Report Text: KHUF 220053Z 01009KT 10SM BKN050 11/06 A3018 RMK AO2 SLP220 T01110061 $
Loading
Personal Weather Stations






























Interactive Weather Map
Tropical Storm Tracking
New forecast layout! Learn more

10-Day Weather Forecast

Advertisements
Track Severe Weather on mobile